Time;durP1;ratioP1;P1;durP2;ratioP2;P2;SDS_P1;SDS_P2;PMS_P1;PMS_P2;Temp;Humidity;BMP_temperature;BMP_pressure;BME280_temperature;BME280_humidity;BME280_pressure;Samples;Min_cycle;Max_cycle;Signal;HPM_P1;HPM_P2
2023/03/31 00:01:08;;;;;;;6.60;1.92;;;;;;;;;;5013310;28;20273;-60
2023/03/31 00:03:37;;;;;;;5.18;1.60;;;;;;;;;;5013084;28;20025;-61
2023/03/31 00:06:04;;;;;;;7.13;1.92;;;;;;;;;;5013081;28;20033;-63
2023/03/31 00:08:34;;;;;;;7.07;1.95;;;;;;;;;;5012958;28;20049;-64
2023/03/31 00:11:00;;;;;;;7.40;1.98;;;;;;;;;;5013370;28;20038;-60
2023/03/31 00:13:27;;;;;;;9.40;2.28;;;;;;;;;;5012025;28;20417;-60
2023/03/31 00:15:57;;;;;;;6.97;1.80;;;;;;;;;;5012558;28;20030;-60
2023/03/31 00:18:24;;;;;;;6.82;1.73;;;;;;;;;;5012235;28;20494;-60
2023/03/31 00:20:51;;;;;;;5.10;1.60;;;;;;;;;;5012619;28;20084;-62
2023/03/31 00:23:26;;;;;;;6.40;1.58;;;;;;;;;;5012733;28;20390;-61
2023/03/31 00:25:53;;;;;;;7.13;1.75;;;;;;;;;;5012787;28;20110;-61
2023/03/31 00:28:19;;;;;;;6.70;2.05;;;;;;;;;;5012063;28;20030;-61
2023/03/31 00:30:46;;;;;;;3.88;1.35;;;;;;;;;;5012244;28;20084;-62
2023/03/31 00:33:13;;;;;;;6.47;1.88;;;;;;;;;;5012298;28;20025;-61
2023/03/31 00:35:39;;;;;;;6.95;2.30;;;;;;;;;;5012926;28;20028;-61
2023/03/31 00:38:07;;;;;;;6.28;1.88;;;;;;;;;;5012626;28;20034;-61
2023/03/31 00:40:33;;;;;;;8.23;1.73;;;;;;;;;;5012332;28;20036;-62
2023/03/31 00:42:59;;;;;;;6.70;1.80;;;;;;;;;;5012366;28;20052;-63
2023/03/31 00:45:28;;;;;;;8.73;1.80;;;;;;;;;;5011720;28;20026;-61
2023/03/31 00:47:57;;;;;;;6.47;1.67;;;;;;;;;;5012370;28;20029;-61
2023/03/31 00:50:28;;;;;;;6.80;1.85;;;;;;;;;;5012178;28;20565;-61
2023/03/31 00:53:00;;;;;;;5.72;1.55;;;;;;;;;;5012444;28;20018;-61
2023/03/31 00:55:30;;;;;;;6.60;1.75;;;;;;;;;;5012093;28;20072;-60
2023/03/31 00:57:57;;;;;;;6.45;1.92;;;;;;;;;;5012335;28;20022;-61
2023/03/31 01:00:23;;;;;;;6.85;2.00;;;;;;;;;;5011089;28;20109;-61
2023/03/31 01:02:59;;;;;;;6.55;1.77;;;;;;;;;;5012273;28;20022;-62
2023/03/31 01:05:33;;;;;;;5.90;1.83;;;;;;;;;;5011994;28;20030;-64
2023/03/31 01:08:01;;;;;;;7.63;1.55;;;;;;;;;;5012003;28;20037;-61
2023/03/31 01:10:27;;;;;;;6.45;1.85;;;;;;;;;;5011810;28;20116;-61
2023/03/31 01:12:54;;;;;;;8.82;1.73;;;;;;;;;;5011938;28;20068;-61
2023/03/31 01:15:21;;;;;;;6.05;1.67;;;;;;;;;;5011571;28;20030;-62
2023/03/31 01:17:49;;;;;;;5.68;1.75;;;;;;;;;;5011528;28;20107;-63
2023/03/31 01:20:24;;;;;;;5.88;1.73;;;;;;;;;;5011774;28;20113;-63
2023/03/31 01:22:58;;;;;;;9.75;2.35;;;;;;;;;;5011868;28;20022;-63
2023/03/31 01:25:42;;;;;;;7.80;1.67;;;;;;;;;;5011442;28;20041;-64
2023/03/31 01:28:13;;;;;;;7.10;1.92;;;;;;;;;;5012101;28;20390;-64
2023/03/31 01:30:39;;;;;;;5.75;1.60;;;;;;;;;;5012103;28;20501;-62
2023/03/31 01:33:34;;;;;;;7.47;1.55;;;;;;;;;;5010983;28;20084;-60
2023/03/31 01:36:03;;;;;;;5.97;1.75;;;;;;;;;;4998635;28;20430;-63
2023/03/31 01:38:44;;;;;;;5.53;1.45;;;;;;;;;;5011368;28;20444;-61
2023/03/31 01:41:10;;;;;;;6.50;1.50;;;;;;;;;;5011869;28;20057;-62
2023/03/31 01:43:39;;;;;;;7.63;1.50;;;;;;;;;;5011702;28;20091;-60
2023/03/31 01:46:12;;;;;;;7.90;2.60;;;;;;;;;;5011297;28;20564;-63
2023/03/31 01:49:04;;;;;;;5.68;1.50;;;;;;;;;;5011673;28;20076;-63
2023/03/31 01:51:33;;;;;;;7.43;1.92;;;;;;;;;;4973490;28;20539;-63
2023/03/31 01:54:14;;;;;;;5.38;1.98;;;;;;;;;;4991793;28;20030;-64
2023/03/31 01:57:10;;;;;;;7.53;1.95;;;;;;;;;;4999885;28;20021;-64
2023/03/31 01:59:43;;;;;;;5.38;1.63;;;;;;;;;;4998566;28;20041;-66
2023/03/31 02:02:13;;;;;;;6.95;1.80;;;;;;;;;;5011726;28;20481;-65
2023/03/31 02:04:45;;;;;;;9.75;2.30;;;;;;;;;;5011683;28;20064;-66
2023/03/31 02:07:16;;;;;;;5.78;1.40;;;;;;;;;;5011148;28;20083;-60
2023/03/31 02:09:43;;;;;;;6.00;1.63;;;;;;;;;;5011145;28;20121;-67
2023/03/31 02:12:11;;;;;;;6.30;1.52;;;;;;;;;;5011233;28;20076;-63
2023/03/31 02:14:42;;;;;;;8.15;1.70;;;;;;;;;;5011536;28;20025;-63
2023/03/31 02:17:14;;;;;;;4.65;1.58;;;;;;;;;;5011683;28;20033;-67
2023/03/31 02:19:40;;;;;;;6.82;1.60;;;;;;;;;;5011434;28;20022;-65
2023/03/31 02:22:08;;;;;;;5.75;1.40;;;;;;;;;;5011128;28;20481;-68
2023/03/31 02:24:35;;;;;;;5.45;1.50;;;;;;;;;;5010973;28;20049;-60
2023/03/31 02:27:05;;;;;;;8.65;2.15;;;;;;;;;;5011176;28;20824;-61
2023/03/31 02:29:31;;;;;;;5.25;1.40;;;;;;;;;;5010727;28;20034;-61
2023/03/31 02:32:06;;;;;;;3.80;1.17;;;;;;;;;;5010991;28;20033;-62
2023/03/31 02:34:32;;;;;;;4.20;1.70;;;;;;;;;;5010867;28;20121;-60
2023/03/31 02:36:58;;;;;;;5.13;1.58;;;;;;;;;;5014640;28;20060;-62
2023/03/31 02:39:26;;;;;;;3.72;1.38;;;;;;;;;;5014655;28;20033;-60
2023/03/31 02:41:52;;;;;;;6.43;1.73;;;;;;;;;;5014737;28;20025;-61
2023/03/31 02:44:19;;;;;;;5.30;1.40;;;;;;;;;;5014351;28;20393;-61
2023/03/31 02:46:45;;;;;;;4.63;1.17;;;;;;;;;;5014408;28;20026;-61
2023/03/31 02:49:11;;;;;;;2.92;1.00;;;;;;;;;;5014503;28;20034;-62
2023/03/31 02:52:16;;;;;;;5.28;1.65;;;;;;;;;;5014910;28;20056;-61
2023/03/31 02:55:00;;;;;;;4.43;1.25;;;;;;;;;;4954257;29;20435;-60
2023/03/31 02:57:45;;;;;;;4.13;1.00;;;;;;;;;;4953972;28;20110;-65
2023/03/31 03:00:20;;;;;;;3.75;1.00;;;;;;;;;;4997871;28;20045;-61
2023/03/31 03:02:50;;;;;;;5.22;1.30;;;;;;;;;;5014307;28;20397;-60
2023/03/31 03:05:19;;;;;;;4.07;1.15;;;;;;;;;;5014014;28;20117;-62
2023/03/31 03:07:49;;;;;;;8.95;2.35;;;;;;;;;;5014460;28;20018;-60
2023/03/31 03:10:37;;;;;;;3.95;1.27;;;;;;;;;;5014064;28;20134;-60
2023/03/31 03:13:07;;;;;;;4.30;1.13;;;;;;;;;;5013861;28;20037;-60
2023/03/31 03:15:59;;;;;;;5.30;1.25;;;;;;;;;;5013945;28;20029;-60
2023/03/31 03:18:25;;;;;;;5.00;1.25;;;;;;;;;;4972624;28;20066;-60
2023/03/31 03:20:51;;;;;;;3.58;0.80;;;;;;;;;;4994551;28;20081;-62
2023/03/31 03:23:17;;;;;;;6.55;2.40;;;;;;;;;;4994295;28;20041;-64
2023/03/31 03:25:45;;;;;;;1.80;0.82;;;;;;;;;;4994439;28;20022;-64
2023/03/31 03:28:11;;;;;;;4.88;0.80;;;;;;;;;;4994355;28;20042;-61
2023/03/31 03:30:37;;;;;;;3.00;0.93;;;;;;;;;;4994587;28;20036;-60
2023/03/31 03:33:05;;;;;;;4.00;0.85;;;;;;;;;;5011733;28;20030;-61
2023/03/31 03:35:31;;;;;;;3.90;0.80;;;;;;;;;;5013606;28;20832;-61
2023/03/31 03:37:57;;;;;;;4.72;0.95;;;;;;;;;;5013764;28;20054;-61
2023/03/31 03:40:23;;;;;;;2.67;0.73;;;;;;;;;;5013532;28;20076;-65
2023/03/31 03:42:49;;;;;;;3.55;0.90;;;;;;;;;;5013165;28;20064;-63
2023/03/31 03:45:15;;;;;;;2.90;0.80;;;;;;;;;;5013338;28;20049;-62
2023/03/31 03:47:41;;;;;;;3.53;0.90;;;;;;;;;;5012559;28;20437;-61
2023/03/31 03:50:07;;;;;;;3.20;1.08;;;;;;;;;;5013816;28;20482;-62
2023/03/31 03:52:33;;;;;;;3.45;1.05;;;;;;;;;;5013258;28;20096;-61
2023/03/31 03:55:00;;;;;;;3.35;0.90;;;;;;;;;;5013426;28;20034;-61
2023/03/31 03:57:26;;;;;;;4.15;0.90;;;;;;;;;;5012623;28;20037;-65
2023/03/31 03:59:52;;;;;;;2.45;0.68;;;;;;;;;;5013286;28;20022;-63
2023/03/31 04:02:18;;;;;;;2.70;0.77;;;;;;;;;;5012889;28;20156;-62
2023/03/31 04:04:44;;;;;;;3.55;0.77;;;;;;;;;;5012877;28;20022;-60
2023/03/31 04:07:10;;;;;;;3.25;0.90;;;;;;;;;;5013437;28;20577;-62
2023/03/31 04:09:36;;;;;;;2.45;0.75;;;;;;;;;;5013308;28;20164;-61
2023/03/31 04:12:02;;;;;;;3.10;0.95;;;;;;;;;;5012685;28;20028;-62
2023/03/31 04:14:28;;;;;;;3.17;0.80;;;;;;;;;;5012973;28;20026;-61
2023/03/31 04:16:55;;;;;;;1.40;0.60;;;;;;;;;;5013103;28;20030;-64
2023/03/31 04:19:24;;;;;;;3.50;0.90;;;;;;;;;;5012732;28;20030;-65
2023/03/31 04:21:57;;;;;;;4.97;0.95;;;;;;;;;;5012902;28;20033;-60
2023/03/31 04:24:31;;;;;;;3.00;0.80;;;;;;;;;;5012254;28;20040;-63
2023/03/31 04:26:57;;;;;;;3.95;0.88;;;;;;;;;;5012570;28;20331;-60
2023/03/31 04:29:25;;;;;;;2.22;0.60;;;;;;;;;;5012401;28;20045;-61
2023/03/31 04:31:52;;;;;;;3.92;0.85;;;;;;;;;;5012732;28;20086;-60
2023/03/31 04:34:21;;;;;;;2.85;0.55;;;;;;;;;;5012367;28;20030;-62
2023/03/31 04:36:47;;;;;;;2.42;0.82;;;;;;;;;;5012313;28;20088;-62
2023/03/31 04:39:14;;;;;;;2.22;0.80;;;;;;;;;;5012356;28;20061;-63
2023/03/31 04:41:40;;;;;;;2.28;0.80;;;;;;;;;;5012481;28;20026;-63
2023/03/31 04:44:06;;;;;;;1.85;0.60;;;;;;;;;;5012316;28;20033;-61
2023/03/31 04:46:33;;;;;;;3.10;0.93;;;;;;;;;;5012305;28;20022;-62
2023/03/31 04:49:00;;;;;;;4.63;1.08;;;;;;;;;;5012350;28;20061;-61
2023/03/31 04:51:26;;;;;;;3.03;0.90;;;;;;;;;;5011963;28;20360;-62
2023/03/31 04:53:52;;;;;;;3.22;0.90;;;;;;;;;;5012434;28;20104;-61
2023/03/31 04:56:18;;;;;;;2.88;0.63;;;;;;;;;;5012039;28;20116;-60
2023/03/31 04:58:44;;;;;;;4.75;1.33;;;;;;;;;;5011573;28;20034;-62
2023/03/31 05:01:12;;;;;;;2.53;1.35;;;;;;;;;;5012075;28;20362;-65
2023/03/31 05:03:38;;;;;;;3.38;1.00;;;;;;;;;;5012366;28;20038;-63
2023/03/31 05:06:04;;;;;;;3.00;0.88;;;;;;;;;;5012080;28;20092;-62
2023/03/31 05:08:31;;;;;;;3.80;0.98;;;;;;;;;;5011704;28;20488;-63
2023/03/31 05:10:57;;;;;;;6.38;1.30;;;;;;;;;;5010897;28;20034;-61
2023/03/31 05:13:23;;;;;;;3.08;0.80;;;;;;;;;;5011954;28;20033;-64
2023/03/31 05:15:50;;;;;;;3.60;1.20;;;;;;;;;;5011944;28;20076;-61
2023/03/31 05:18:16;;;;;;;2.90;0.80;;;;;;;;;;5010499;28;20513;-61
2023/03/31 05:20:42;;;;;;;4.43;0.93;;;;;;;;;;5011920;28;20389;-61
2023/03/31 05:23:08;;;;;;;5.13;1.08;;;;;;;;;;5012274;28;20033;-63
2023/03/31 05:25:35;;;;;;;3.53;0.95;;;;;;;;;;5007679;28;20441;-61
2023/03/31 05:28:01;;;;;;;3.88;1.10;;;;;;;;;;5010847;28;20493;-63
2023/03/31 05:30:27;;;;;;;3.28;0.90;;;;;;;;;;5011362;28;20033;-61
2023/03/31 05:32:53;;;;;;;4.07;1.42;;;;;;;;;;5011016;28;20097;-60
2023/03/31 05:35:19;;;;;;;5.18;1.20;;;;;;;;;;5011472;28;20119;-60
2023/03/31 05:37:45;;;;;;;7.72;1.42;;;;;;;;;;5011267;28;20065;-60
2023/03/31 05:40:12;;;;;;;4.72;1.08;;;;;;;;;;5011501;28;20482;-60
2023/03/31 05:42:38;;;;;;;9.30;1.20;;;;;;;;;;5011948;28;20083;-59
2023/03/31 05:45:04;;;;;;;4.90;1.10;;;;;;;;;;5011680;28;20393;-60
2023/03/31 05:47:31;;;;;;;5.57;1.42;;;;;;;;;;5009796;28;20034;-61
2023/03/31 05:49:57;;;;;;;3.97;1.25;;;;;;;;;;4993845;28;20034;-61
2023/03/31 05:52:23;;;;;;;5.22;1.52;;;;;;;;;;5011442;28;20465;-61
2023/03/31 05:54:49;;;;;;;9.75;1.67;;;;;;;;;;5011430;28;20124;-61
2023/03/31 05:57:15;;;;;;;5.75;1.63;;;;;;;;;;5010142;28;20030;-63
2023/03/31 05:59:41;;;;;;;8.18;1.30;;;;;;;;;;5010747;28;20072;-62
2023/03/31 06:02:08;;;;;;;6.28;1.52;;;;;;;;;;5010024;28;20022;-61
2023/03/31 06:04:34;;;;;;;5.07;1.60;;;;;;;;;;5009033;28;20045;-62
2023/03/31 06:07:00;;;;;;;6.32;2.00;;;;;;;;;;5010470;28;20030;-60
2023/03/31 06:09:27;;;;;;;6.63;1.48;;;;;;;;;;5010406;28;20038;-60
2023/03/31 06:11:53;;;;;;;7.38;2.13;;;;;;;;;;5014513;28;20092;-60
2023/03/31 06:14:19;;;;;;;7.15;2.22;;;;;;;;;;5012543;28;20481;-60
2023/03/31 06:16:47;;;;;;;7.25;2.03;;;;;;;;;;5015218;28;20025;-59
2023/03/31 06:19:12;;;;;;;8.95;2.38;;;;;;;;;;5014925;28;20444;-60
2023/03/31 06:21:38;;;;;;;6.80;2.20;;;;;;;;;;5026341;28;20029;-64
2023/03/31 06:24:05;;;;;;;11.27;2.13;;;;;;;;;;5019251;28;20041;-65
2023/03/31 06:26:31;;;;;;;7.20;2.40;;;;;;;;;;5014446;28;20034;-61
2023/03/31 06:28:57;;;;;;;8.45;2.05;;;;;;;;;;4997889;28;20038;-62
2023/03/31 06:31:24;;;;;;;9.18;2.20;;;;;;;;;;4998618;28;20371;-66
2023/03/31 06:33:50;;;;;;;6.72;2.35;;;;;;;;;;5023278;28;20029;-62
2023/03/31 06:36:18;;;;;;;10.35;2.35;;;;;;;;;;5015978;28;20034;-63
2023/03/31 06:38:44;;;;;;;9.23;2.50;;;;;;;;;;5013813;28;20029;-61
2023/03/31 06:41:11;;;;;;;10.85;3.05;;;;;;;;;;5015259;28;20127;-60
2023/03/31 06:43:37;;;;;;;11.50;2.80;;;;;;;;;;5013860;28;20041;-60
2023/03/31 06:46:03;;;;;;;7.65;2.50;;;;;;;;;;5014729;28;20034;-60
2023/03/31 06:48:30;;;;;;;10.10;3.05;;;;;;;;;;5014523;28;20061;-61
2023/03/31 06:50:58;;;;;;;12.27;2.90;;;;;;;;;;5014834;28;20057;-61
2023/03/31 06:53:24;;;;;;;7.15;2.38;;;;;;;;;;5014545;28;20101;-61
2023/03/31 06:55:50;;;;;;;10.20;2.92;;;;;;;;;;5014658;28;20113;-62
2023/03/31 06:58:16;;;;;;;9.18;2.42;;;;;;;;;;5013987;28;20045;-61
2023/03/31 07:00:44;;;;;;;7.22;2.50;;;;;;;;;;5014553;28;20492;-62
2023/03/31 07:03:11;;;;;;;10.02;2.45;;;;;;;;;;5014349;28;20109;-61
2023/03/31 07:05:37;;;;;;;9.32;2.95;;;;;;;;;;5014808;28;20054;-60
2023/03/31 07:08:04;;;;;;;9.52;2.90;;;;;;;;;;5014445;28;20030;-61
2023/03/31 07:10:30;;;;;;;9.73;2.72;;;;;;;;;;5014064;28;20458;-60
2023/03/31 07:12:56;;;;;;;10.43;3.00;;;;;;;;;;5013978;28;20455;-60
2023/03/31 07:15:23;;;;;;;10.57;3.17;;;;;;;;;;5013859;28;20030;-60
2023/03/31 07:17:52;;;;;;;9.75;3.63;;;;;;;;;;5014374;28;20021;-62
2023/03/31 07:20:19;;;;;;;10.93;3.20;;;;;;;;;;5014041;28;20030;-60
2023/03/31 07:22:46;;;;;;;9.25;2.92;;;;;;;;;;5013923;28;20504;-63
2023/03/31 07:25:13;;;;;;;10.75;2.85;;;;;;;;;;5013843;28;20026;-60
2023/03/31 07:27:39;;;;;;;12.52;3.13;;;;;;;;;;5013803;28;20092;-60
2023/03/31 07:30:06;;;;;;;9.20;2.72;;;;;;;;;;5014043;28;20042;-60
2023/03/31 07:32:32;;;;;;;11.02;3.03;;;;;;;;;;5013799;28;20560;-62
2023/03/31 07:34:58;;;;;;;9.70;2.95;;;;;;;;;;5013982;28;20026;-63
2023/03/31 07:37:25;;;;;;;11.38;2.47;;;;;;;;;;5013601;28;20036;-61
2023/03/31 07:39:50;;;;;;;13.43;2.72;;;;;;;;;;5013763;28;20433;-61
2023/03/31 07:42:16;;;;;;;13.25;2.58;;;;;;;;;;5013073;28;20095;-61
2023/03/31 07:44:42;;;;;;;9.20;2.88;;;;;;;;;;5013874;28;20134;-61
2023/03/31 07:47:08;;;;;;;8.32;2.97;;;;;;;;;;5014039;28;20072;-61
2023/03/31 07:49:35;;;;;;;10.95;3.17;;;;;;;;;;5013337;28;20396;-61
2023/03/31 07:52:01;;;;;;;10.60;3.28;;;;;;;;;;5013591;28;20029;-62
2023/03/31 07:54:27;;;;;;;9.95;2.85;;;;;;;;;;5013009;28;20038;-61
2023/03/31 07:56:54;;;;;;;8.23;2.85;;;;;;;;;;5013198;28;20394;-61
2023/03/31 07:59:20;;;;;;;13.32;3.95;;;;;;;;;;5012555;28;20362;-60
2023/03/31 08:01:46;;;;;;;13.73;3.28;;;;;;;;;;5012923;28;20030;-61
2023/03/31 08:04:12;;;;;;;11.40;3.40;;;;;;;;;;5012345;28;20034;-61
2023/03/31 08:06:39;;;;;;;9.63;3.00;;;;;;;;;;5013661;28;20432;-60
2023/03/31 08:09:06;;;;;;;14.52;3.67;;;;;;;;;;5013291;28;20120;-60
2023/03/31 08:11:32;;;;;;;8.73;2.78;;;;;;;;;;5011882;28;20390;-62
2023/03/31 08:13:58;;;;;;;13.20;3.20;;;;;;;;;;5013167;28;20036;-60
2023/03/31 08:16:25;;;;;;;11.82;3.08;;;;;;;;;;5012404;28;20033;-59
2023/03/31 08:18:51;;;;;;;13.43;2.80;;;;;;;;;;5012703;28;20030;-60
2023/03/31 08:21:17;;;;;;;12.05;3.55;;;;;;;;;;5012737;28;20500;-61
2023/03/31 08:23:42;;;;;;;10.82;3.28;;;;;;;;;;5012956;28;20026;-60
2023/03/31 08:26:10;;;;;;;13.88;3.83;;;;;;;;;;5013087;28;20029;-61
2023/03/31 08:28:36;;;;;;;16.27;3.67;;;;;;;;;;5010295;28;20034;-61
2023/03/31 08:31:03;;;;;;;10.88;2.85;;;;;;;;;;5012757;28;20115;-60
2023/03/31 08:33:29;;;;;;;14.68;3.05;;;;;;;;;;5013259;28;20030;-60
2023/03/31 08:35:55;;;;;;;11.60;3.10;;;;;;;;;;5016031;28;20025;-60
2023/03/31 08:38:21;;;;;;;10.85;3.13;;;;;;;;;;5020104;28;20584;-61
2023/03/31 08:40:47;;;;;;;10.43;2.80;;;;;;;;;;5026869;28;20029;-60
2023/03/31 08:43:22;;;;;;;12.40;2.83;;;;;;;;;;5030892;28;20116;-61
2023/03/31 08:45:48;;;;;;;11.45;3.45;;;;;;;;;;5022810;28;20030;-60
2023/03/31 08:48:43;;;;;;;13.48;3.15;;;;;;;;;;5011617;28;20482;-60
2023/03/31 08:51:15;;;;;;;10.82;2.83;;;;;;;;;;5012271;28;20113;-61
2023/03/31 08:53:43;;;;;;;12.50;2.90;;;;;;;;;;5012760;28;20033;-60
2023/03/31 08:56:14;;;;;;;11.73;3.95;;;;;;;;;;5012700;28;20030;-62
2023/03/31 08:58:44;;;;;;;9.40;2.40;;;;;;;;;;5012630;28;20034;-61
2023/03/31 09:01:28;;;;;;;10.48;3.45;;;;;;;;;;5012768;28;20065;-61
2023/03/31 09:03:57;;;;;;;13.55;3.53;;;;;;;;;;5012098;28;20030;-60
2023/03/31 09:06:29;;;;;;;11.43;3.03;;;;;;;;;;5011730;28;20060;-60
2023/03/31 09:08:59;;;;;;;15.07;3.67;;;;;;;;;;5012931;28;20560;-60
2023/03/31 09:11:25;;;;;;;11.77;3.30;;;;;;;;;;5027657;28;20027;-61
2023/03/31 09:14:10;;;;;;;10.35;3.58;;;;;;;;;;5016174;28;20475;-61
2023/03/31 09:16:50;;;;;;;13.95;3.83;;;;;;;;;;5012336;28;20034;-60
2023/03/31 09:19:19;;;;;;;12.30;3.38;;;;;;;;;;4992312;28;20065;-60
2023/03/31 09:21:49;;;;;;;12.95;4.40;;;;;;;;;;4985170;28;20049;-61
2023/03/31 09:24:20;;;;;;;10.95;3.20;;;;;;;;;;5011694;28;20033;-61
2023/03/31 09:26:54;;;;;;;13.73;3.20;;;;;;;;;;5012154;28;20091;-60
2023/03/31 09:29:38;;;;;;;10.77;2.58;;;;;;;;;;5011541;28;20405;-60
2023/03/31 09:32:15;;;;;;;14.13;4.07;;;;;;;;;;5011095;28;20029;-60
2023/03/31 09:34:41;;;;;;;10.45;3.20;;;;;;;;;;5011748;28;20026;-60
2023/03/31 09:37:09;;;;;;;15.13;3.80;;;;;;;;;;5011792;28;20034;-60
2023/03/31 09:39:35;;;;;;;13.63;3.15;;;;;;;;;;5011578;28;20111;-60
2023/03/31 09:42:01;;;;;;;12.10;3.22;;;;;;;;;;5012648;28;20153;-61
2023/03/31 09:44:27;;;;;;;13.57;3.67;;;;;;;;;;5031176;28;20167;-61
2023/03/31 09:46:53;;;;;;;13.40;3.08;;;;;;;;;;5031405;28;20034;-65
2023/03/31 09:49:21;;;;;;;10.98;2.88;;;;;;;;;;5015770;28;20085;-60
2023/03/31 09:51:49;;;;;;;11.77;3.58;;;;;;;;;;4993690;28;20414;-64
2023/03/31 09:54:24;;;;;;;10.95;2.75;;;;;;;;;;5011144;28;20066;-60
2023/03/31 09:56:54;;;;;;;15.25;3.42;;;;;;;;;;5011371;28;20120;-61
2023/03/31 09:59:22;;;;;;;13.18;3.47;;;;;;;;;;5011337;28;20105;-61
2023/03/31 10:01:52;;;;;;;17.02;3.20;;;;;;;;;;5025136;28;20554;-62
2023/03/31 10:04:25;;;;;;;12.35;3.25;;;;;;;;;;5021523;28;20082;-60
2023/03/31 10:06:52;;;;;;;8.90;2.72;;;;;;;;;;5025479;28;20030;-60
2023/03/31 10:09:20;;;;;;;10.95;3.40;;;;;;;;;;5011064;28;20153;-60
2023/03/31 10:11:57;;;;;;;11.20;3.03;;;;;;;;;;5010976;28;20057;-61
2023/03/31 10:14:27;;;;;;;13.40;2.78;;;;;;;;;;5010668;28;20034;-60
2023/03/31 10:16:54;;;;;;;11.50;3.30;;;;;;;;;;5011283;28;20381;-60
2023/03/31 10:19:20;;;;;;;11.50;3.40;;;;;;;;;;5011087;28;20041;-60
2023/03/31 10:21:47;;;;;;;13.50;3.00;;;;;;;;;;5011250;28;20018;-62
2023/03/31 10:24:17;;;;;;;10.70;3.03;;;;;;;;;;5010919;28;20397;-60
2023/03/31 10:26:47;;;;;;;15.60;3.17;;;;;;;;;;5010980;28;20417;-63
2023/03/31 10:29:20;;;;;;;12.05;3.00;;;;;;;;;;5011019;28;20513;-63
2023/03/31 10:31:47;;;;;;;13.13;3.75;;;;;;;;;;5011262;28;20033;-60
2023/03/31 10:34:17;;;;;;;10.20;3.15;;;;;;;;;;5011030;28;20032;-61
2023/03/31 10:36:47;;;;;;;11.90;3.20;;;;;;;;;;5010941;28;20406;-60
2023/03/31 10:39:15;;;;;;;9.98;2.72;;;;;;;;;;5010974;28;20026;-62
2023/03/31 10:41:41;;;;;;;13.90;3.28;;;;;;;;;;5010726;28;20025;-62
2023/03/31 10:44:27;;;;;;;12.45;3.22;;;;;;;;;;5010473;28;20084;-60
2023/03/31 10:46:53;;;;;;;11.68;2.90;;;;;;;;;;5011013;28;20081;-60
2023/03/31 10:49:22;;;;;;;11.93;3.17;;;;;;;;;;5010216;28;20050;-60
2023/03/31 10:51:52;;;;;;;15.00;3.47;;;;;;;;;;5010961;28;20538;-60
2023/03/31 10:54:18;;;;;;;10.25;2.75;;;;;;;;;;5010863;28;20026;-61
2023/03/31 10:56:46;;;;;;;9.45;2.95;;;;;;;;;;5012457;28;20410;-62
2023/03/31 10:59:30;;;;;;;12.13;2.88;;;;;;;;;;5014016;28;20125;-62
2023/03/31 11:01:59;;;;;;;12.77;2.80;;;;;;;;;;5014598;28;20478;-60
2023/03/31 11:04:44;;;;;;;10.90;2.83;;;;;;;;;;5014035;28;20022;-63
2023/03/31 11:07:29;;;;;;;12.95;3.15;;;;;;;;;;5013064;28;20449;-61
2023/03/31 11:10:03;;;;;;;10.43;2.67;;;;;;;;;;5012656;28;20064;-64
2023/03/31 11:12:35;;;;;;;10.95;2.33;;;;;;;;;;4997275;28;20109;-61
2023/03/31 11:15:08;;;;;;;8.93;2.60;;;;;;;;;;5002055;28;20488;-66
2023/03/31 11:17:46;;;;;;;10.50;2.20;;;;;;;;;;5033882;28;20029;-65
2023/03/31 11:20:18;;;;;;;9.73;2.28;;;;;;;;;;5025693;28;20030;-63
2023/03/31 11:23:04;;;;;;;9.20;2.42;;;;;;;;;;5013844;28;20037;-63
2023/03/31 11:25:34;;;;;;;11.40;2.90;;;;;;;;;;5012660;28;20030;-64
2023/03/31 11:28:03;;;;;;;8.02;2.28;;;;;;;;;;5012961;28;20064;-67
2023/03/31 11:30:52;;;;;;;9.00;2.20;;;;;;;;;;5013646;28;20485;-61
2023/03/31 11:33:36;;;;;;;7.70;2.45;;;;;;;;;;5005915;28;20038;-64
2023/03/31 11:36:28;;;;;;;11.65;2.80;;;;;;;;;;5013808;28;20044;-65
2023/03/31 11:39:13;;;;;;;9.88;2.72;;;;;;;;;;5014004;28;20081;-60
2023/03/31 11:41:42;;;;;;;6.68;2.13;;;;;;;;;;5013213;28;20088;-60
2023/03/31 11:44:13;;;;;;;8.40;2.00;;;;;;;;;;5013131;28;20018;-63
2023/03/31 11:46:45;;;;;;;8.60;2.15;;;;;;;;;;5013396;28;20042;-63
2023/03/31 11:49:13;;;;;;;6.90;2.28;;;;;;;;;;5013013;28;20048;-60
2023/03/31 11:51:40;;;;;;;10.02;2.63;;;;;;;;;;5013954;28;20053;-61
2023/03/31 11:54:10;;;;;;;9.57;2.45;;;;;;;;;;5013651;28;20029;-62
2023/03/31 11:56:39;;;;;;;9.13;2.42;;;;;;;;;;5013861;28;20030;-64
2023/03/31 11:59:06;;;;;;;10.10;3.00;;;;;;;;;;5013460;28;20386;-60
2023/03/31 12:01:44;;;;;;;8.65;2.45;;;;;;;;;;5013307;28;20030;-60
2023/03/31 12:04:25;;;;;;;10.15;2.45;;;;;;;;;;5013712;28;20121;-62
2023/03/31 12:06:52;;;;;;;10.70;1.85;;;;;;;;;;5013268;28;20037;-61
2023/03/31 12:09:29;;;;;;;10.63;2.17;;;;;;;;;;5012004;28;20042;-64
2023/03/31 12:12:01;;;;;;;10.57;2.25;;;;;;;;;;5013397;28;20057;-63
2023/03/31 12:14:36;;;;;;;8.82;2.33;;;;;;;;;;4995274;28;20072;-62
2023/03/31 12:17:05;;;;;;;7.07;1.73;;;;;;;;;;5013309;28;20044;-63
2023/03/31 12:19:40;;;;;;;7.05;1.90;;;;;;;;;;5012873;28;20021;-61
2023/03/31 12:22:10;;;;;;;6.63;1.75;;;;;;;;;;5013548;28;20026;-61
2023/03/31 12:24:36;;;;;;;8.25;1.98;;;;;;;;;;5013284;28;20470;-63
2023/03/31 12:27:08;;;;;;;7.30;1.75;;;;;;;;;;5013051;28;20513;-62
2023/03/31 12:29:35;;;;;;;6.30;1.80;;;;;;;;;;5012382;28;20042;-64
2023/03/31 12:32:05;;;;;;;6.35;2.40;;;;;;;;;;5012760;28;20069;-62
2023/03/31 12:34:59;;;;;;;6.47;1.73;;;;;;;;;;5012779;28;20129;-61
2023/03/31 12:37:34;;;;;;;7.28;2.28;;;;;;;;;;5012644;28;20029;-61
2023/03/31 12:40:00;;;;;;;5.32;1.33;;;;;;;;;;5012774;28;20572;-61
2023/03/31 12:42:45;;;;;;;5.93;1.85;;;;;;;;;;5012186;28;20035;-61
2023/03/31 12:45:17;;;;;;;7.35;2.00;;;;;;;;;;4995142;28;20560;-61
2023/03/31 12:47:43;;;;;;;7.65;2.03;;;;;;;;;;5012670;28;20029;-60
2023/03/31 12:50:35;;;;;;;5.35;1.67;;;;;;;;;;5012555;28;20034;-61
2023/03/31 12:53:04;;;;;;;6.78;1.83;;;;;;;;;;5012598;28;20457;-61
2023/03/31 12:55:42;;;;;;;5.38;1.80;;;;;;;;;;5012256;28;20409;-62
2023/03/31 12:58:25;;;;;;;4.53;1.35;;;;;;;;;;5012728;28;20026;-61
2023/03/31 13:01:10;;;;;;;5.05;1.95;;;;;;;;;;5012378;28;20386;-61
2023/03/31 13:03:44;;;;;;;6.00;1.20;;;;;;;;;;5012675;28;20026;-60
2023/03/31 13:06:29;;;;;;;5.55;1.95;;;;;;;;;;5012664;28;20037;-60
2023/03/31 13:08:55;;;;;;;4.97;1.60;;;;;;;;;;5012069;28;20512;-60
2023/03/31 13:11:30;;;;;;;4.90;1.30;;;;;;;;;;5011809;28;20030;-61
2023/03/31 13:14:01;;;;;;;3.78;1.63;;;;;;;;;;5012272;28;20029;-65
2023/03/31 13:16:27;;;;;;;5.35;1.50;;;;;;;;;;5012008;28;20037;-63
2023/03/31 13:18:53;;;;;;;4.22;1.60;;;;;;;;;;5011846;28;20502;-62
2023/03/31 13:21:20;;;;;;;5.45;1.48;;;;;;;;;;5011877;28;20034;-61
2023/03/31 13:23:46;;;;;;;5.68;1.67;;;;;;;;;;5012055;28;20025;-60
2023/03/31 13:26:31;;;;;;;4.30;1.10;;;;;;;;;;5011549;28;20109;-63
2023/03/31 13:29:10;;;;;;;3.95;1.15;;;;;;;;;;5011874;28;20112;-62
2023/03/31 13:31:56;;;;;;;2.10;0.80;;;;;;;;;;5012340;28;20058;-63
2023/03/31 13:34:23;;;;;;;4.22;0.82;;;;;;;;;;5001110;28;20065;-65
2023/03/31 13:37:00;;;;;;;4.35;1.42;;;;;;;;;;5011857;28;20469;-62
2023/03/31 13:39:44;;;;;;;4.57;1.50;;;;;;;;;;5011473;28;20379;-65
2023/03/31 13:42:22;;;;;;;6.85;1.10;;;;;;;;;;5011873;28;20084;-63
2023/03/31 13:44:52;;;;;;;1.98;0.80;;;;;;;;;;5011515;28;20034;-64
2023/03/31 13:47:21;;;;;;;3.72;1.35;;;;;;;;;;5011359;28;20470;-63
2023/03/31 13:49:52;;;;;;;4.68;0.80;;;;;;;;;;5011521;28;20037;-62
2023/03/31 13:52:25;;;;;;;2.85;0.90;;;;;;;;;;5011474;28;20030;-61
2023/03/31 13:55:06;;;;;;;5.93;1.75;;;;;;;;;;5010992;28;20081;-60
2023/03/31 13:57:32;;;;;;;4.45;0.93;;;;;;;;;;5004729;28;20079;-59
2023/03/31 14:00:11;;;;;;;4.43;1.30;;;;;;;;;;5011144;28;20026;-62
2023/03/31 14:03:03;;;;;;;4.38;1.33;;;;;;;;;;5011876;28;20018;-61
2023/03/31 14:05:42;;;;;;;2.75;0.80;;;;;;;;;;4978568;28;20049;-61
2023/03/31 14:08:10;;;;;;;3.20;1.15;;;;;;;;;;5011151;28;20105;-61
2023/03/31 14:10:37;;;;;;;3.63;1.20;;;;;;;;;;5006965;28;20045;-60
2023/03/31 14:13:14;;;;;;;7.95;3.72;;;;;;;;;;5010980;28;20026;-61
2023/03/31 14:15:42;;;;;;;9.77;7.03;;;;;;;;;;5011750;28;20557;-63
2023/03/31 14:18:11;;;;;;;16.67;9.48;;;;;;;;;;5011598;28;20474;-67
2023/03/31 14:20:45;;;;;;;15.52;10.18;;;;;;;;;;5010897;28;20022;-66
2023/03/31 14:23:34;;;;;;;16.85;12.00;;;;;;;;;;5010665;28;20083;-66
2023/03/31 14:26:00;;;;;;;17.98;12.75;;;;;;;;;;5011252;28;20041;-67
2023/03/31 14:28:36;;;;;;;17.92;14.10;;;;;;;;;;5010080;28;20124;-66
2023/03/31 14:31:03;;;;;;;25.05;15.07;;;;;;;;;;5006054;28;20073;-66
2023/03/31 14:33:49;;;;;;;19.48;14.27;;;;;;;;;;5014563;28;20037;-65
2023/03/31 14:36:24;;;;;;;20.02;15.13;;;;;;;;;;4993883;28;20042;-66
2023/03/31 14:38:50;;;;;;;20.98;15.00;;;;;;;;;;5014684;28;20026;-65
2023/03/31 14:41:28;;;;;;;23.40;14.65;;;;;;;;;;5014821;28;20030;-66
2023/03/31 14:43:55;;;;;;;20.27;14.60;;;;;;;;;;5014653;28;20038;-66
2023/03/31 14:46:21;;;;;;;18.80;14.25;;;;;;;;;;5014729;28;20029;-67
2023/03/31 14:48:49;;;;;;;22.20;14.85;;;;;;;;;;5014850;28;20030;-66
2023/03/31 14:51:15;;;;;;;18.65;13.30;;;;;;;;;;5014494;28;20033;-64
2023/03/31 14:53:42;;;;;;;18.13;12.65;;;;;;;;;;5014044;28;20026;-66
2023/03/31 14:56:15;;;;;;;17.38;12.68;;;;;;;;;;5014914;28;20035;-66